sensor_id;sensor_type;location;lat;lon;timestamp;P1;durP1;ratioP1;P2;durP2;ratioP2
67889;SDS011;54685;52.082;5.426;2023-12-04T00:01:15;22.83;;;12.82;;
67889;SDS011;54685;52.082;5.426;2023-12-04T00:03:43;24.35;;;12.35;;
67889;SDS011;54685;52.082;5.426;2023-12-04T00:06:10;21.20;;;12.65;;
67889;SDS011;54685;52.082;5.426;2023-12-04T00:08:38;24.92;;;13.18;;
67889;SDS011;54685;52.082;5.426;2023-12-04T00:11:05;23.98;;;12.85;;
67889;SDS011;54685;52.082;5.426;2023-12-04T00:13:32;20.48;;;11.20;;
67889;SDS011;54685;52.082;5.426;2023-12-04T00:16:00;24.58;;;12.98;;
67889;SDS011;54685;52.082;5.426;2023-12-04T00:18:27;24.70;;;13.55;;
67889;SDS011;54685;52.082;5.426;2023-12-04T00:20:54;22.35;;;13.20;;
67889;SDS011;54685;52.082;5.426;2023-12-04T00:23:21;22.38;;;12.27;;
67889;SDS011;54685;52.082;5.426;2023-12-04T00:25:48;21.77;;;13.35;;
67889;SDS011;54685;52.082;5.426;2023-12-04T00:28:15;20.58;;;12.00;;
67889;SDS011;54685;52.082;5.426;2023-12-04T00:30:42;21.83;;;13.48;;
67889;SDS011;54685;52.082;5.426;2023-12-04T00:33:10;21.48;;;12.30;;
67889;SDS011;54685;52.082;5.426;2023-12-04T00:35:37;23.55;;;13.98;;
67889;SDS011;54685;52.082;5.426;2023-12-04T00:38:04;26.55;;;14.20;;
67889;SDS011;54685;52.082;5.426;2023-12-04T00:40:31;24.02;;;12.90;;
67889;SDS011;54685;52.082;5.426;2023-12-04T00:42:58;22.38;;;13.05;;
67889;SDS011;54685;52.082;5.426;2023-12-04T00:45:25;26.05;;;13.85;;
67889;SDS011;54685;52.082;5.426;2023-12-04T00:47:52;28.30;;;14.48;;
67889;SDS011;54685;52.082;5.426;2023-12-04T00:50:19;27.17;;;14.55;;
67889;SDS011;54685;52.082;5.426;2023-12-04T00:52:46;25.75;;;14.20;;
67889;SDS011;54685;52.082;5.426;2023-12-04T00:55:14;24.55;;;13.85;;
67889;SDS011;54685;52.082;5.426;2023-12-04T00:57:41;28.02;;;15.35;;
67889;SDS011;54685;52.082;5.426;2023-12-04T01:00:08;30.75;;;15.63;;
67889;SDS011;54685;52.082;5.426;2023-12-04T01:02:35;31.17;;;15.40;;
67889;SDS011;54685;52.082;5.426;2023-12-04T01:05:03;27.58;;;14.70;;
67889;SDS011;54685;52.082;5.426;2023-12-04T01:07:30;29.65;;;14.27;;
67889;SDS011;54685;52.082;5.426;2023-12-04T01:09:57;26.23;;;14.85;;
67889;SDS011;54685;52.082;5.426;2023-12-04T01:12:24;27.85;;;15.70;;
67889;SDS011;54685;52.082;5.426;2023-12-04T01:14:51;30.13;;;16.10;;
67889;SDS011;54685;52.082;5.426;2023-12-04T01:17:19;31.77;;;16.35;;
67889;SDS011;54685;52.082;5.426;2023-12-04T01:19:45;24.60;;;14.48;;
67889;SDS011;54685;52.082;5.426;2023-12-04T01:22:13;32.10;;;16.25;;
67889;SDS011;54685;52.082;5.426;2023-12-04T01:24:40;27.77;;;14.93;;
67889;SDS011;54685;52.082;5.426;2023-12-04T01:27:06;27.27;;;14.40;;
67889;SDS011;54685;52.082;5.426;2023-12-04T01:29:33;25.10;;;14.50;;
67889;SDS011;54685;52.082;5.426;2023-12-04T01:32:01;30.10;;;15.25;;
67889;SDS011;54685;52.082;5.426;2023-12-04T01:34:28;27.77;;;15.60;;
67889;SDS011;54685;52.082;5.426;2023-12-04T01:36:55;27.95;;;15.45;;
67889;SDS011;54685;52.082;5.426;2023-12-04T01:39:22;27.05;;;16.00;;
67889;SDS011;54685;52.082;5.426;2023-12-04T01:41:50;28.85;;;16.05;;
67889;SDS011;54685;52.082;5.426;2023-12-04T01:44:19;28.85;;;15.05;;
67889;SDS011;54685;52.082;5.426;2023-12-04T01:46:48;25.33;;;13.93;;
67889;SDS011;54685;52.082;5.426;2023-12-04T01:49:16;30.92;;;15.48;;
67889;SDS011;54685;52.082;5.426;2023-12-04T01:51:43;28.00;;;15.60;;
67889;SDS011;54685;52.082;5.426;2023-12-04T01:54:10;26.25;;;15.02;;
67889;SDS011;54685;52.082;5.426;2023-12-04T01:56:38;24.42;;;13.98;;
67889;SDS011;54685;52.082;5.426;2023-12-04T01:59:05;24.95;;;14.07;;
67889;SDS011;54685;52.082;5.426;2023-12-04T02:01:32;25.45;;;14.88;;
67889;SDS011;54685;52.082;5.426;2023-12-04T02:03:59;27.58;;;15.30;;
67889;SDS011;54685;52.082;5.426;2023-12-04T02:06:28;27.92;;;14.93;;
67889;SDS011;54685;52.082;5.426;2023-12-04T02:08:56;31.55;;;16.35;;
67889;SDS011;54685;52.082;5.426;2023-12-04T02:11:23;26.40;;;14.88;;
67889;SDS011;54685;52.082;5.426;2023-12-04T02:13:50;28.50;;;15.65;;
67889;SDS011;54685;52.082;5.426;2023-12-04T02:16:18;23.88;;;14.10;;
67889;SDS011;54685;52.082;5.426;2023-12-04T02:18:46;25.75;;;14.40;;
67889;SDS011;54685;52.082;5.426;2023-12-04T02:21:14;26.02;;;15.07;;
67889;SDS011;54685;52.082;5.426;2023-12-04T02:23:41;30.30;;;16.38;;
67889;SDS011;54685;52.082;5.426;2023-12-04T02:26:14;27.15;;;15.50;;
67889;SDS011;54685;52.082;5.426;2023-12-04T02:28:45;22.17;;;13.18;;
67889;SDS011;54685;52.082;5.426;2023-12-04T02:31:17;26.63;;;15.57;;
67889;SDS011;54685;52.082;5.426;2023-12-04T02:33:45;24.35;;;14.25;;
67889;SDS011;54685;52.082;5.426;2023-12-04T02:36:14;27.02;;;14.77;;
67889;SDS011;54685;52.082;5.426;2023-12-04T02:38:42;33.78;;;15.85;;
67889;SDS011;54685;52.082;5.426;2023-12-04T02:41:11;25.65;;;14.18;;
67889;SDS011;54685;52.082;5.426;2023-12-04T02:43:38;24.48;;;13.60;;
67889;SDS011;54685;52.082;5.426;2023-12-04T02:46:05;32.63;;;15.00;;
67889;SDS011;54685;52.082;5.426;2023-12-04T02:48:32;27.23;;;15.38;;
67889;SDS011;54685;52.082;5.426;2023-12-04T02:50:59;25.90;;;14.65;;
67889;SDS011;54685;52.082;5.426;2023-12-04T02:53:26;28.33;;;14.93;;
67889;SDS011;54685;52.082;5.426;2023-12-04T02:55:53;27.83;;;14.85;;
67889;SDS011;54685;52.082;5.426;2023-12-04T02:58:20;27.88;;;14.25;;
67889;SDS011;54685;52.082;5.426;2023-12-04T03:00:47;26.50;;;14.55;;
67889;SDS011;54685;52.082;5.426;2023-12-04T03:03:14;25.70;;;13.85;;
67889;SDS011;54685;52.082;5.426;2023-12-04T03:05:41;26.90;;;13.80;;
67889;SDS011;54685;52.082;5.426;2023-12-04T03:08:08;25.33;;;14.13;;
67889;SDS011;54685;52.082;5.426;2023-12-04T03:10:35;26.80;;;14.73;;
67889;SDS011;54685;52.082;5.426;2023-12-04T03:13:02;25.45;;;13.48;;
67889;SDS011;54685;52.082;5.426;2023-12-04T03:15:29;23.45;;;13.20;;
67889;SDS011;54685;52.082;5.426;2023-12-04T03:17:57;22.55;;;13.15;;
67889;SDS011;54685;52.082;5.426;2023-12-04T03:20:31;25.33;;;13.60;;
67889;SDS011;54685;52.082;5.426;2023-12-04T03:22:59;26.25;;;14.10;;
67889;SDS011;54685;52.082;5.426;2023-12-04T03:25:26;26.33;;;13.65;;
67889;SDS011;54685;52.082;5.426;2023-12-04T03:27:53;24.65;;;14.00;;
67889;SDS011;54685;52.082;5.426;2023-12-04T03:30:20;23.17;;;13.30;;
67889;SDS011;54685;52.082;5.426;2023-12-04T03:32:47;24.00;;;13.20;;
67889;SDS011;54685;52.082;5.426;2023-12-04T03:35:14;22.70;;;12.80;;
67889;SDS011;54685;52.082;5.426;2023-12-04T03:37:41;23.85;;;13.25;;
67889;SDS011;54685;52.082;5.426;2023-12-04T03:40:08;21.20;;;12.43;;
67889;SDS011;54685;52.082;5.426;2023-12-04T03:42:35;25.10;;;13.95;;
67889;SDS011;54685;52.082;5.426;2023-12-04T03:45:02;22.00;;;13.38;;
67889;SDS011;54685;52.082;5.426;2023-12-04T03:47:30;25.10;;;13.38;;
67889;SDS011;54685;52.082;5.426;2023-12-04T03:49:57;26.42;;;14.35;;
67889;SDS011;54685;52.082;5.426;2023-12-04T03:52:26;24.38;;;13.27;;
67889;SDS011;54685;52.082;5.426;2023-12-04T03:54:53;21.45;;;12.68;;
67889;SDS011;54685;52.082;5.426;2023-12-04T03:57:21;23.08;;;12.10;;
67889;SDS011;54685;52.082;5.426;2023-12-04T03:59:47;20.23;;;12.95;;
67889;SDS011;54685;52.082;5.426;2023-12-04T04:02:15;20.98;;;12.73;;
67889;SDS011;54685;52.082;5.426;2023-12-04T04:04:42;23.73;;;12.43;;
67889;SDS011;54685;52.082;5.426;2023-12-04T04:07:09;22.13;;;12.25;;
67889;SDS011;54685;52.082;5.426;2023-12-04T04:09:36;22.02;;;12.45;;
67889;SDS011;54685;52.082;5.426;2023-12-04T04:12:03;22.48;;;12.93;;
67889;SDS011;54685;52.082;5.426;2023-12-04T04:14:31;21.02;;;12.45;;
67889;SDS011;54685;52.082;5.426;2023-12-04T04:17:00;17.58;;;11.40;;
67889;SDS011;54685;52.082;5.426;2023-12-04T04:19:27;20.00;;;11.75;;
67889;SDS011;54685;52.082;5.426;2023-12-04T04:22:01;24.13;;;12.85;;
67889;SDS011;54685;52.082;5.426;2023-12-04T04:24:29;21.33;;;12.80;;
67889;SDS011;54685;52.082;5.426;2023-12-04T04:26:56;21.55;;;12.90;;
67889;SDS011;54685;52.082;5.426;2023-12-04T04:29:23;22.10;;;12.48;;
67889;SDS011;54685;52.082;5.426;2023-12-04T04:31:50;21.85;;;12.63;;
67889;SDS011;54685;52.082;5.426;2023-12-04T04:34:19;21.58;;;12.07;;
67889;SDS011;54685;52.082;5.426;2023-12-04T04:36:47;21.10;;;12.70;;
67889;SDS011;54685;52.082;5.426;2023-12-04T04:39:14;21.48;;;12.90;;
67889;SDS011;54685;52.082;5.426;2023-12-04T04:41:41;24.10;;;12.25;;
67889;SDS011;54685;52.082;5.426;2023-12-04T04:44:08;21.08;;;12.07;;
67889;SDS011;54685;52.082;5.426;2023-12-04T04:46:35;20.73;;;11.27;;
67889;SDS011;54685;52.082;5.426;2023-12-04T04:49:02;20.67;;;12.07;;
67889;SDS011;54685;52.082;5.426;2023-12-04T04:54:02;19.38;;;10.70;;
67889;SDS011;54685;52.082;5.426;2023-12-04T04:56:30;20.15;;;11.15;;
67889;SDS011;54685;52.082;5.426;2023-12-04T04:58:57;22.13;;;12.18;;
67889;SDS011;54685;52.082;5.426;2023-12-04T05:01:24;23.50;;;11.95;;
67889;SDS011;54685;52.082;5.426;2023-12-04T05:03:51;18.77;;;10.93;;
67889;SDS011;54685;52.082;5.426;2023-12-04T05:06:18;18.63;;;10.70;;
67889;SDS011;54685;52.082;5.426;2023-12-04T05:08:45;18.60;;;11.27;;
67889;SDS011;54685;52.082;5.426;2023-12-04T05:11:14;18.58;;;11.77;;
67889;SDS011;54685;52.082;5.426;2023-12-04T05:13:41;17.67;;;10.73;;
67889;SDS011;54685;52.082;5.426;2023-12-04T05:16:08;20.50;;;11.10;;
67889;SDS011;54685;52.082;5.426;2023-12-04T05:18:36;16.73;;;10.77;;
67889;SDS011;54685;52.082;5.426;2023-12-04T05:21:08;15.93;;;10.75;;
67889;SDS011;54685;52.082;5.426;2023-12-04T05:23:36;15.68;;;10.80;;
67889;SDS011;54685;52.082;5.426;2023-12-04T05:26:04;15.40;;;10.32;;
67889;SDS011;54685;52.082;5.426;2023-12-04T05:28:32;19.05;;;11.20;;
67889;SDS011;54685;52.082;5.426;2023-12-04T05:31:00;18.48;;;10.70;;
67889;SDS011;54685;52.082;5.426;2023-12-04T05:33:27;19.23;;;11.45;;
67889;SDS011;54685;52.082;5.426;2023-12-04T05:35:54;16.85;;;10.30;;
67889;SDS011;54685;52.082;5.426;2023-12-04T05:38:22;14.55;;;9.85;;
67889;SDS011;54685;52.082;5.426;2023-12-04T05:40:52;21.25;;;10.27;;
67889;SDS011;54685;52.082;5.426;2023-12-04T05:43:20;18.83;;;11.02;;
67889;SDS011;54685;52.082;5.426;2023-12-04T05:45:47;16.42;;;10.65;;
67889;SDS011;54685;52.082;5.426;2023-12-04T05:48:18;19.05;;;11.25;;
67889;SDS011;54685;52.082;5.426;2023-12-04T05:50:45;18.85;;;10.50;;
67889;SDS011;54685;52.082;5.426;2023-12-04T05:53:11;17.58;;;10.88;;
67889;SDS011;54685;52.082;5.426;2023-12-04T05:55:39;18.48;;;11.32;;
67889;SDS011;54685;52.082;5.426;2023-12-04T05:58:06;16.38;;;10.63;;
67889;SDS011;54685;52.082;5.426;2023-12-04T06:00:33;15.23;;;10.50;;
67889;SDS011;54685;52.082;5.426;2023-12-04T06:03:00;16.38;;;10.52;;
67889;SDS011;54685;52.082;5.426;2023-12-04T06:05:27;17.52;;;10.27;;
67889;SDS011;54685;52.082;5.426;2023-12-04T06:07:54;15.52;;;10.27;;
67889;SDS011;54685;52.082;5.426;2023-12-04T06:10:21;18.05;;;9.90;;
67889;SDS011;54685;52.082;5.426;2023-12-04T06:12:48;17.35;;;9.50;;
67889;SDS011;54685;52.082;5.426;2023-12-04T06:15:15;20.60;;;10.50;;
67889;SDS011;54685;52.082;5.426;2023-12-04T06:17:45;13.13;;;9.07;;
67889;SDS011;54685;52.082;5.426;2023-12-04T06:20:12;15.30;;;9.98;;
67889;SDS011;54685;52.082;5.426;2023-12-04T06:22:39;14.18;;;9.60;;
67889;SDS011;54685;52.082;5.426;2023-12-04T06:25:08;13.18;;;8.93;;
67889;SDS011;54685;52.082;5.426;2023-12-04T06:27:35;16.48;;;9.93;;
67889;SDS011;54685;52.082;5.426;2023-12-04T06:30:02;16.48;;;9.70;;
67889;SDS011;54685;52.082;5.426;2023-12-04T06:32:30;14.95;;;10.07;;
67889;SDS011;54685;52.082;5.426;2023-12-04T06:34:57;18.30;;;10.20;;
67889;SDS011;54685;52.082;5.426;2023-12-04T06:37:24;15.55;;;9.23;;
67889;SDS011;54685;52.082;5.426;2023-12-04T06:39:52;18.63;;;9.93;;
67889;SDS011;54685;52.082;5.426;2023-12-04T06:42:20;14.93;;;10.23;;
67889;SDS011;54685;52.082;5.426;2023-12-04T06:44:47;15.15;;;9.23;;
67889;SDS011;54685;52.082;5.426;2023-12-04T06:47:15;15.48;;;9.63;;
67889;SDS011;54685;52.082;5.426;2023-12-04T06:49:44;14.18;;;9.23;;
67889;SDS011;54685;52.082;5.426;2023-12-04T06:52:11;14.60;;;9.18;;
67889;SDS011;54685;52.082;5.426;2023-12-04T06:54:38;15.52;;;9.32;;
67889;SDS011;54685;52.082;5.426;2023-12-04T06:57:05;14.57;;;8.95;;
67889;SDS011;54685;52.082;5.426;2023-12-04T06:59:32;14.18;;;9.40;;
67889;SDS011;54685;52.082;5.426;2023-12-04T07:01:59;14.88;;;9.40;;
67889;SDS011;54685;52.082;5.426;2023-12-04T07:04:26;14.27;;;8.55;;
67889;SDS011;54685;52.082;5.426;2023-12-04T07:06:53;14.00;;;8.60;;
67889;SDS011;54685;52.082;5.426;2023-12-04T07:09:20;12.20;;;8.73;;
67889;SDS011;54685;52.082;5.426;2023-12-04T07:11:47;12.70;;;8.32;;
67889;SDS011;54685;52.082;5.426;2023-12-04T07:14:16;13.45;;;9.15;;
67889;SDS011;54685;52.082;5.426;2023-12-04T07:16:43;12.60;;;8.23;;
67889;SDS011;54685;52.082;5.426;2023-12-04T07:19:10;14.38;;;8.45;;
67889;SDS011;54685;52.082;5.426;2023-12-04T07:21:38;12.82;;;7.72;;
67889;SDS011;54685;52.082;5.426;2023-12-04T07:24:05;12.85;;;8.20;;
67889;SDS011;54685;52.082;5.426;2023-12-04T07:26:33;10.80;;;7.40;;
67889;SDS011;54685;52.082;5.426;2023-12-04T07:29:01;13.93;;;8.73;;
67889;SDS011;54685;52.082;5.426;2023-12-04T07:31:28;16.50;;;9.20;;
67889;SDS011;54685;52.082;5.426;2023-12-04T07:33:55;13.10;;;8.80;;
67889;SDS011;54685;52.082;5.426;2023-12-04T07:36:23;13.88;;;9.02;;
67889;SDS011;54685;52.082;5.426;2023-12-04T07:38:51;13.15;;;8.90;;
67889;SDS011;54685;52.082;5.426;2023-12-04T07:41:23;12.57;;;8.32;;
67889;SDS011;54685;52.082;5.426;2023-12-04T07:43:51;13.80;;;8.88;;
67889;SDS011;54685;52.082;5.426;2023-12-04T07:46:18;12.95;;;8.82;;
67889;SDS011;54685;52.082;5.426;2023-12-04T07:48:45;11.68;;;8.40;;
67889;SDS011;54685;52.082;5.426;2023-12-04T07:51:12;12.43;;;8.23;;
67889;SDS011;54685;52.082;5.426;2023-12-04T07:53:39;10.45;;;7.93;;
67889;SDS011;54685;52.082;5.426;2023-12-04T07:56:06;11.85;;;7.70;;
67889;SDS011;54685;52.082;5.426;2023-12-04T07:58:34;12.38;;;8.52;;
67889;SDS011;54685;52.082;5.426;2023-12-04T08:01:01;12.50;;;8.25;;
67889;SDS011;54685;52.082;5.426;2023-12-04T08:03:29;12.63;;;8.05;;
67889;SDS011;54685;52.082;5.426;2023-12-04T08:05:56;13.27;;;8.45;;
67889;SDS011;54685;52.082;5.426;2023-12-04T08:08:23;13.07;;;8.90;;
67889;SDS011;54685;52.082;5.426;2023-12-04T08:10:51;11.82;;;7.72;;
67889;SDS011;54685;52.082;5.426;2023-12-04T08:13:18;10.85;;;7.25;;
67889;SDS011;54685;52.082;5.426;2023-12-04T08:15:45;10.88;;;7.63;;
67889;SDS011;54685;52.082;5.426;2023-12-04T08:18:12;10.73;;;7.15;;
67889;SDS011;54685;52.082;5.426;2023-12-04T08:20:39;17.73;;;8.13;;
67889;SDS011;54685;52.082;5.426;2023-12-04T08:23:07;10.15;;;7.10;;
67889;SDS011;54685;52.082;5.426;2023-12-04T08:25:35;11.05;;;7.80;;
67889;SDS011;54685;52.082;5.426;2023-12-04T08:28:06;11.30;;;7.38;;
67889;SDS011;54685;52.082;5.426;2023-12-04T08:30:36;10.40;;;7.10;;
67889;SDS011;54685;52.082;5.426;2023-12-04T08:33:04;10.07;;;6.78;;
67889;SDS011;54685;52.082;5.426;2023-12-04T08:35:33;8.90;;;6.30;;
67889;SDS011;54685;52.082;5.426;2023-12-04T08:38:00;10.30;;;7.00;;
67889;SDS011;54685;52.082;5.426;2023-12-04T08:40:28;10.95;;;7.15;;
67889;SDS011;54685;52.082;5.426;2023-12-04T08:42:55;11.05;;;6.75;;
67889;SDS011;54685;52.082;5.426;2023-12-04T08:45:22;8.80;;;6.75;;
67889;SDS011;54685;52.082;5.426;2023-12-04T08:47:50;12.13;;;6.97;;
67889;SDS011;54685;52.082;5.426;2023-12-04T08:50:17;10.20;;;7.55;;
67889;SDS011;54685;52.082;5.426;2023-12-04T08:52:44;10.68;;;7.38;;
67889;SDS011;54685;52.082;5.426;2023-12-04T08:55:11;10.65;;;6.90;;
67889;SDS011;54685;52.082;5.426;2023-12-04T08:57:38;9.15;;;6.75;;
67889;SDS011;54685;52.082;5.426;2023-12-04T09:00:05;9.45;;;6.38;;
67889;SDS011;54685;52.082;5.426;2023-12-04T09:02:34;11.82;;;7.30;;
67889;SDS011;54685;52.082;5.426;2023-12-04T09:05:09;17.02;;;7.68;;
67889;SDS011;54685;52.082;5.426;2023-12-04T09:07:36;16.55;;;9.07;;
67889;SDS011;54685;52.082;5.426;2023-12-04T09:10:06;15.90;;;8.10;;
67889;SDS011;54685;52.082;5.426;2023-12-04T09:12:42;11.48;;;7.32;;
67889;SDS011;54685;52.082;5.426;2023-12-04T09:15:09;10.98;;;7.60;;
67889;SDS011;54685;52.082;5.426;2023-12-04T09:17:36;9.85;;;6.70;;
67889;SDS011;54685;52.082;5.426;2023-12-04T09:20:05;10.35;;;6.57;;
67889;SDS011;54685;52.082;5.426;2023-12-04T09:22:32;8.88;;;6.43;;
67889;SDS011;54685;52.082;5.426;2023-12-04T09:27:42;13.73;;;6.85;;
67889;SDS011;54685;52.082;5.426;2023-12-04T09:30:09;11.95;;;6.93;;
67889;SDS011;54685;52.082;5.426;2023-12-04T09:32:39;9.40;;;7.15;;
67889;SDS011;54685;52.082;5.426;2023-12-04T09:35:06;13.95;;;7.22;;
67889;SDS011;54685;52.082;5.426;2023-12-04T09:37:35;9.85;;;7.03;;
67889;SDS011;54685;52.082;5.426;2023-12-04T09:40:02;11.35;;;7.40;;
67889;SDS011;54685;52.082;5.426;2023-12-04T09:42:30;10.23;;;6.53;;
67889;SDS011;54685;52.082;5.426;2023-12-04T09:44:58;8.85;;;5.85;;
67889;SDS011;54685;52.082;5.426;2023-12-04T09:47:25;13.32;;;6.78;;
67889;SDS011;54685;52.082;5.426;2023-12-04T09:49:53;12.55;;;6.65;;
67889;SDS011;54685;52.082;5.426;2023-12-04T09:52:22;9.32;;;6.57;;
67889;SDS011;54685;52.082;5.426;2023-12-04T09:54:51;8.95;;;6.22;;
67889;SDS011;54685;52.082;5.426;2023-12-04T09:57:18;9.50;;;6.35;;
67889;SDS011;54685;52.082;5.426;2023-12-04T09:59:45;8.85;;;6.43;;
67889;SDS011;54685;52.082;5.426;2023-12-04T10:02:15;10.60;;;6.57;;
67889;SDS011;54685;52.082;5.426;2023-12-04T10:04:42;10.75;;;6.78;;
67889;SDS011;54685;52.082;5.426;2023-12-04T10:07:09;8.20;;;6.18;;
67889;SDS011;54685;52.082;5.426;2023-12-04T10:09:36;11.80;;;6.63;;
67889;SDS011;54685;52.082;5.426;2023-12-04T10:12:03;9.85;;;6.57;;
67889;SDS011;54685;52.082;5.426;2023-12-04T10:14:32;10.95;;;5.78;;
67889;SDS011;54685;52.082;5.426;2023-12-04T10:16:59;10.40;;;6.63;;
67889;SDS011;54685;52.082;5.426;2023-12-04T10:19:27;15.80;;;7.05;;
67889;SDS011;54685;52.082;5.426;2023-12-04T10:21:58;9.27;;;6.25;;
67889;SDS011;54685;52.082;5.426;2023-12-04T10:24:27;9.30;;;6.13;;
67889;SDS011;54685;52.082;5.426;2023-12-04T10:27:03;9.82;;;6.88;;
67889;SDS011;54685;52.082;5.426;2023-12-04T10:32:18;10.93;;;6.50;;
67889;SDS011;54685;52.082;5.426;2023-12-04T10:34:49;8.80;;;6.35;;
67889;SDS011;54685;52.082;5.426;2023-12-04T10:37:17;8.77;;;6.18;;
67889;SDS011;54685;52.082;5.426;2023-12-04T10:39:46;10.90;;;6.78;;
67889;SDS011;54685;52.082;5.426;2023-12-04T10:42:24;11.00;;;6.80;;
67889;SDS011;54685;52.082;5.426;2023-12-04T10:44:55;11.13;;;6.82;;
67889;SDS011;54685;52.082;5.426;2023-12-04T10:47:23;12.52;;;7.55;;
67889;SDS011;54685;52.082;5.426;2023-12-04T10:49:51;11.45;;;7.28;;
67889;SDS011;54685;52.082;5.426;2023-12-04T10:52:19;12.32;;;7.05;;
67889;SDS011;54685;52.082;5.426;2023-12-04T10:54:50;11.50;;;7.40;;
67889;SDS011;54685;52.082;5.426;2023-12-04T10:57:26;11.10;;;7.40;;
67889;SDS011;54685;52.082;5.426;2023-12-04T11:00:03;14.07;;;7.63;;
67889;SDS011;54685;52.082;5.426;2023-12-04T11:02:33;11.38;;;7.15;;
67889;SDS011;54685;52.082;5.426;2023-12-04T11:05:05;9.48;;;6.80;;
67889;SDS011;54685;52.082;5.426;2023-12-04T11:07:58;9.15;;;6.55;;
67889;SDS011;54685;52.082;5.426;2023-12-04T11:10:45;10.93;;;7.03;;
67889;SDS011;54685;52.082;5.426;2023-12-04T11:13:32;8.38;;;6.70;;
67889;SDS011;54685;52.082;5.426;2023-12-04T11:16:01;13.15;;;7.72;;
67889;SDS011;54685;52.082;5.426;2023-12-04T11:18:31;9.95;;;7.63;;
67889;SDS011;54685;52.082;5.426;2023-12-04T11:21:06;11.77;;;7.63;;
67889;SDS011;54685;52.082;5.426;2023-12-04T11:23:35;12.18;;;7.85;;
67889;SDS011;54685;52.082;5.426;2023-12-04T11:26:02;13.65;;;8.05;;
67889;SDS011;54685;52.082;5.426;2023-12-04T11:28:31;11.65;;;7.78;;
67889;SDS011;54685;52.082;5.426;2023-12-04T11:31:00;9.82;;;7.53;;
67889;SDS011;54685;52.082;5.426;2023-12-04T11:33:27;12.00;;;7.93;;
67889;SDS011;54685;52.082;5.426;2023-12-04T11:36:05;11.50;;;8.32;;
67889;SDS011;54685;52.082;5.426;2023-12-04T11:38:43;11.30;;;7.57;;
67889;SDS011;54685;52.082;5.426;2023-12-04T11:41:24;11.10;;;7.57;;
67889;SDS011;54685;52.082;5.426;2023-12-04T11:43:56;12.15;;;8.27;;
67889;SDS011;54685;52.082;5.426;2023-12-04T11:46:25;12.52;;;8.27;;
67889;SDS011;54685;52.082;5.426;2023-12-04T11:48:56;11.68;;;7.88;;
67889;SDS011;54685;52.082;5.426;2023-12-04T11:54:17;13.65;;;8.23;;
67889;SDS011;54685;52.082;5.426;2023-12-04T11:59:39;10.90;;;8.15;;
67889;SDS011;54685;52.082;5.426;2023-12-04T12:02:10;12.45;;;8.38;;
67889;SDS011;54685;52.082;5.426;2023-12-04T12:04:38;14.48;;;8.52;;
67889;SDS011;54685;52.082;5.426;2023-12-04T12:07:05;12.52;;;9.13;;
67889;SDS011;54685;52.082;5.426;2023-12-04T12:09:33;14.43;;;8.70;;
67889;SDS011;54685;52.082;5.426;2023-12-04T12:12:01;12.95;;;9.15;;
67889;SDS011;54685;52.082;5.426;2023-12-04T12:14:29;12.98;;;8.27;;
67889;SDS011;54685;52.082;5.426;2023-12-04T12:16:59;10.68;;;7.78;;
67889;SDS011;54685;52.082;5.426;2023-12-04T12:19:27;16.08;;;8.23;;
67889;SDS011;54685;52.082;5.426;2023-12-04T12:21:55;12.32;;;8.48;;
67889;SDS011;54685;52.082;5.426;2023-12-04T12:24:26;20.40;;;12.07;;
67889;SDS011;54685;52.082;5.426;2023-12-04T12:26:54;15.77;;;10.68;;
67889;SDS011;54685;52.082;5.426;2023-12-04T12:29:24;12.40;;;8.63;;
67889;SDS011;54685;52.082;5.426;2023-12-04T12:31:51;14.77;;;8.68;;
67889;SDS011;54685;52.082;5.426;2023-12-04T12:34:18;13.80;;;8.20;;
67889;SDS011;54685;52.082;5.426;2023-12-04T12:36:45;14.77;;;8.27;;
67889;SDS011;54685;52.082;5.426;2023-12-04T12:39:13;14.02;;;8.55;;
67889;SDS011;54685;52.082;5.426;2023-12-04T12:41:48;11.52;;;7.35;;
67889;SDS011;54685;52.082;5.426;2023-12-04T12:44:16;13.35;;;8.77;;
67889;SDS011;54685;52.082;5.426;2023-12-04T12:46:46;14.77;;;8.48;;
67889;SDS011;54685;52.082;5.426;2023-12-04T12:49:17;12.88;;;8.48;;
67889;SDS011;54685;52.082;5.426;2023-12-04T12:52:01;12.20;;;8.70;;
67889;SDS011;54685;52.082;5.426;2023-12-04T12:54:31;12.85;;;8.40;;
67889;SDS011;54685;52.082;5.426;2023-12-04T12:56:59;11.60;;;7.93;;
67889;SDS011;54685;52.082;5.426;2023-12-04T12:59:28;10.65;;;7.50;;
67889;SDS011;54685;52.082;5.426;2023-12-04T13:01:55;14.10;;;8.13;;
67889;SDS011;54685;52.082;5.426;2023-12-04T13:04:23;11.70;;;8.05;;
67889;SDS011;54685;52.082;5.426;2023-12-04T13:06:50;12.07;;;8.13;;
67889;SDS011;54685;52.082;5.426;2023-12-04T13:09:19;11.25;;;8.07;;
67889;SDS011;54685;52.082;5.426;2023-12-04T13:11:45;11.63;;;7.68;;
67889;SDS011;54685;52.082;5.426;2023-12-04T13:14:13;15.18;;;8.00;;
67889;SDS011;54685;52.082;5.426;2023-12-04T13:16:40;12.55;;;8.18;;
67889;SDS011;54685;52.082;5.426;2023-12-04T13:19:07;10.35;;;7.25;;
67889;SDS011;54685;52.082;5.426;2023-12-04T13:21:34;11.43;;;7.97;;
67889;SDS011;54685;52.082;5.426;2023-12-04T13:24:01;14.70;;;8.70;;
67889;SDS011;54685;52.082;5.426;2023-12-04T13:26:27;13.68;;;8.73;;
67889;SDS011;54685;52.082;5.426;2023-12-04T13:28:54;12.48;;;7.82;;
67889;SDS011;54685;52.082;5.426;2023-12-04T13:31:21;13.07;;;8.57;;
67889;SDS011;54685;52.082;5.426;2023-12-04T13:33:51;11.77;;;8.15;;
67889;SDS011;54685;52.082;5.426;2023-12-04T13:36:18;11.60;;;7.63;;
67889;SDS011;54685;52.082;5.426;2023-12-04T13:38:45;9.95;;;7.53;;
67889;SDS011;54685;52.082;5.426;2023-12-04T13:41:12;13.05;;;7.85;;
67889;SDS011;54685;52.082;5.426;2023-12-04T13:43:57;11.88;;;7.80;;
67889;SDS011;54685;52.082;5.426;2023-12-04T13:46:26;10.60;;;7.25;;
67889;SDS011;54685;52.082;5.426;2023-12-04T13:48:53;12.77;;;8.85;;
67889;SDS011;54685;52.082;5.426;2023-12-04T13:51:20;13.43;;;8.80;;
67889;SDS011;54685;52.082;5.426;2023-12-04T13:53:47;15.07;;;8.02;;
67889;SDS011;54685;52.082;5.426;2023-12-04T13:56:16;13.75;;;8.73;;
67889;SDS011;54685;52.082;5.426;2023-12-04T13:58:50;13.30;;;8.15;;
67889;SDS011;54685;52.082;5.426;2023-12-04T14:01:24;11.55;;;8.15;;
67889;SDS011;54685;52.082;5.426;2023-12-04T14:03:54;10.57;;;7.95;;
67889;SDS011;54685;52.082;5.426;2023-12-04T14:06:30;13.55;;;8.18;;
67889;SDS011;54685;52.082;5.426;2023-12-04T14:08:59;11.23;;;7.40;;
67889;SDS011;54685;52.082;5.426;2023-12-04T14:11:26;12.93;;;8.57;;
67889;SDS011;54685;52.082;5.426;2023-12-04T14:13:53;11.30;;;7.18;;
67889;SDS011;54685;52.082;5.426;2023-12-04T14:16:21;11.93;;;7.78;;
67889;SDS011;54685;52.082;5.426;2023-12-04T14:18:48;12.43;;;8.15;;
67889;SDS011;54685;52.082;5.426;2023-12-04T14:21:15;11.70;;;8.15;;
67889;SDS011;54685;52.082;5.426;2023-12-04T14:23:42;14.43;;;8.73;;
67889;SDS011;54685;52.082;5.426;2023-12-04T14:26:10;16.45;;;8.35;;
67889;SDS011;54685;52.082;5.426;2023-12-04T14:28:37;11.82;;;8.23;;
67889;SDS011;54685;52.082;5.426;2023-12-04T14:31:09;12.32;;;8.30;;
67889;SDS011;54685;52.082;5.426;2023-12-04T14:33:37;13.32;;;8.35;;
67889;SDS011;54685;52.082;5.426;2023-12-04T14:36:08;16.42;;;8.32;;
67889;SDS011;54685;52.082;5.426;2023-12-04T14:38:38;15.23;;;10.27;;
67889;SDS011;54685;52.082;5.426;2023-12-04T14:41:05;12.77;;;8.27;;
67889;SDS011;54685;52.082;5.426;2023-12-04T14:43:33;14.73;;;8.73;;
67889;SDS011;54685;52.082;5.426;2023-12-04T14:46:00;14.93;;;8.40;;
67889;SDS011;54685;52.082;5.426;2023-12-04T14:48:29;11.63;;;8.35;;
67889;SDS011;54685;52.082;5.426;2023-12-04T14:50:56;11.15;;;7.85;;